Coastal Inspiration — CFN4970 — position and weather

sailwx.info

Track history (hours):
 
Tides and Currents Weather Stations Pressure Air Temp Water Temp Dewpoint Dewpoint Depression Visibility Wind Speed Wind Dir Waves Ship Positions

Coastal Inspiration

Last reported at 2017-Feb-21 18:32 UTC. Time now 2017-Feb-21 19:06 UTC.
Position N 49°13' W 123°50'.

Length 160 m; draft 6 m.

Type: Ship. MMSI: 316011408.

Date/timePositionNaut miles runAvg speedWind from/ knotsBaromVisibWave heightAir tempDewpointWater temp
2017-Feb-21 18:32N 49°13' W 123°50'3 2.9
2017-Feb-21 17:33N 49°11' W 123°53'1817.6
2017-Feb-21 16:33N 49°07' W 123°28'1414.3
2017-Feb-21 15:33N 49°00' W 123°08'1111.0
2017-Feb-21 14:33N 49°03' W 123°24'2118.4
2017-Feb-21 13:26N 49°12' W 123°52'3 3.2
2017-Feb-21 12:33N 49°10' W 123°53'0 0.0
2017-Feb-21 10:32N 49°10' W 123°53'0 0.1
2017-Feb-21 08:29N 49°10' W 123°53'1717.1
2017-Feb-21 07:30N 49°07' W 123°28'1515.9
2017-Feb-21 06:34N 49°00' W 123°08'1110.8
2017-Feb-21 05:33N 49°03' W 123°24'1918.9
2017-Feb-21 04:33N 49°13' W 123°49'3 3.3
2017-Feb-21 03:33N 49°12' W 123°53'1817.9
2017-Feb-21 02:33N 49°06' W 123°27'1413.7
2017-Feb-21 01:33N 49°00' W 123°08'1211.9
2017-Feb-21 00:33N 49°04' W 123°25'1818.1
2017-Feb-20 23:32N 49°13' W 123°50'3 2.7
2017-Feb-20 22:33N 49°11' W 123°53'1818.0
2017-Feb-20 21:33N 49°07' W 123°27'1414.0
2017-Feb-20 20:33N 49°00' W 123°08'1111.3
2017-Feb-20 19:33N 49°04' W 123°25'2010.2
2017-Feb-20 17:33N 49°12' W 123°53'1818.1
2017-Feb-20 16:33N 49°06' W 123°26'1413.7
2017-Feb-20 15:33N 49°00' W 123°08'1211.6
2017-Feb-20 14:33N 49°03' W 123°25'2018.1
2017-Feb-20 13:27N 49°12' W 123°53'3 0.8
2017-Feb-20 10:20N 49°10' W 123°53'2 1.1
2017-Feb-20 08:24N 49°12' W 123°53'1619.2
2017-Feb-20 07:33N 49°07' W 123°29'1615.6
2017-Feb-20 06:33N 49°00' W 123°08'1110.6
2017-Feb-20 05:33N 49°03' W 123°24'1919.3
2017-Feb-20 04:33N 49°13' W 123°49'3 2.5
2017-Feb-20 03:31N 49°12' W 123°53'1818.5
2017-Feb-20 02:34N 49°07' W 123°27'1414.0
2017-Feb-20 01:33N 49°00' W 123°08'1212.1
2017-Feb-20 00:33N 49°04' W 123°26'19 9.5
2017-Feb-19 22:30N 49°11' W 123°53'1718.0
2017-Feb-19 21:33N 49°07' W 123°28'1414.5
2017-Feb-19 20:33N 49°00' W 123°08'1211.9
2017-Feb-19 19:33N 49°04' W 123°25'1918.7
2017-Feb-19 18:31N 49°13' W 123°52'3 0.3
2017-Feb-19 09:06N 49°10' W 123°53'0 0.0
2017-Feb-19 05:24N 49°10' W 123°53'3 1.4
2017-Feb-19 03:31N 49°12' W 123°52'1818.5
2017-Feb-19 02:33N 49°06' W 123°27'1413.3
2017-Feb-19 01:32N 49°00' W 123°08'1212.7
2017-Feb-19 00:33N 49°04' W 123°26'1818.0
2017-Feb-18 23:33N 49°13' W 123°50'3 2.5
2017-Feb-18 22:32N 49°11' W 123°54'1818.1
2017-Feb-18 21:32N 49°06' W 123°27'1414.0
2017-Feb-18 20:33N 49°00' W 123°08'1110.8
2017-Feb-18 19:33N 49°03' W 123°24'1918.9
2017-Feb-18 18:34N 49°13' W 123°48'0 0.1
2017-Feb-18 17:24N 49°13' W 123°48'1518.4
2017-Feb-18 16:33N 49°06' W 123°27'1412.7
2017-Feb-18 15:28N 49°00' W 123°08'1212.8
2017-Feb-18 14:33N 49°04' W 123°25'1818.2
2017-Feb-18 13:33N 49°13' W 123°49'4 3.3
2017-Feb-18 12:17N 49°10' W 123°53'0 0.0
2017-Feb-18 10:19N 49°10' W 123°53'2 1.0
2017-Feb-18 08:29N 49°12' W 123°53'1718.0
2017-Feb-18 07:33N 49°07' W 123°28'1514.9
2017-Feb-18 06:33N 49°00' W 123°08'1211.9
2017-Feb-18 05:33N 49°04' W 123°25'1918.4
2017-Feb-18 04:31N 49°13' W 123°51'1 1.1
2017-Feb-18 03:33N 49°12' W 123°53'1918.7
2017-Feb-18 02:32N 49°06' W 123°25'1212.6
2017-Feb-18 01:33N 49°00' W 123°08'1111.0
2017-Feb-18 00:33N 49°03' W 123°24'1919.2
2017-Feb-17 23:32N 49°13' W 123°50'2 1.9
2017-Feb-17 22:33N 49°12' W 123°53'1817.9
2017-Feb-17 21:33N 49°06' W 123°27'1413.6
2017-Feb-17 20:33N 49°00' W 123°08'1111.3
2017-Feb-17 19:33N 49°03' W 123°24'1918.8
2017-Feb-17 18:33N 49°13' W 123°49'0 0.3
2017-Feb-17 17:26N 49°13' W 123°48'1618.1
2017-Feb-17 16:33N 49°06' W 123°26'1313.4
2017-Feb-17 15:33N 49°00' W 123°08'1211.9
2017-Feb-17 14:33N 49°04' W 123°26'1918.4
2017-Feb-17 13:31N 49°13' W 123°50'4 3.8
2017-Feb-17 12:27N 49°10' W 123°53'0 0.0
2017-Feb-17 10:12N 49°10' W 123°53'3 1.6
2017-Feb-17 08:33N 49°12' W 123°53'1919.2
2017-Feb-17 07:33N 49°06' W 123°25'1212.4
2017-Feb-17 06:33N 49°00' W 123°08'1313.2
2017-Feb-17 05:33N 49°05' W 123°27'1917.4
2017-Feb-17 04:29N 49°12' W 123°53'1 1.3
2017-Feb-17 03:33N 49°13' W 123°51'1919.1
2017-Feb-17 02:33N 49°06' W 123°24'1211.8
2017-Feb-17 01:33N 49°00' W 123°08'1313.0
2017-Feb-17 00:33N 49°05' W 123°27'1717.3
2017-Feb-16 23:33N 49°13' W 123°50'3 2.5
2017-Feb-16 22:31N 49°12' W 123°53'1718.0
2017-Feb-16 21:33N 49°07' W 123°28'1414.5
2017-Feb-16 20:34N 49°00' W 123°08'1111.4
2017-Feb-16 19:34N 49°04' W 123°25'2018.6
2017-Feb-16 18:28N 49°13' W 123°53'0 0.5
2017-Feb-16 17:31N 49°12' W 123°53'1819.3
2017-Feb-16 16:33N 49°06' W 123°26'1313.3
2017-Feb-16 15:33N 49°00' W 123°08'1211.8
2017-Feb-16 14:33N 49°04' W 123°25'1818.1
2017-Feb-16 13:33N 49°13' W 123°49'3 0.6
2017-Feb-16 08:28N 49°12' W 123°53'1718.5
2017-Feb-16 07:32N 49°08' W 123°28'1515.2
2017-Feb-16 06:34N 49°00' W 123°08'1010.1
2017-Feb-16 05:33N 49°03' W 123°23'2019.6
2017-Feb-16 04:33N 49°13' W 123°49'4 3.5
2017-Feb-16 03:33N 49°11' W 123°53'1919.3
2017-Feb-16 02:33N 49°06' W 123°25'1212.0
2017-Feb-16 01:32N 49°00' W 123°08'1414.5
2017-Feb-16 00:34N 49°05' W 123°28'1817.6
2017-Feb-15 23:33N 49°12' W 123°53'1 0.9
2017-Feb-15 22:33N 49°13' W 123°52'1818.0
2017-Feb-15 21:33N 49°06' W 123°26'1313.5
2017-Feb-15 20:33N 49°00' W 123°08'1211.9
2017-Feb-15 19:33N 49°04' W 123°25'1918.8
2017-Feb-15 18:33N 49°13' W 123°50'1 1.0
2017-Feb-15 17:33N 49°13' W 123°52'1817.9
2017-Feb-15 16:33N 49°06' W 123°26'1313.2
2017-Feb-15 15:33N 49°00' W 123°08'1111.4
2017-Feb-15 14:33N 49°04' W 123°25'1918.4
2017-Feb-15 13:33N 49°13' W 123°49'4 4.4
2017-Feb-15 12:33N 49°10' W 123°53'0 0.0
2017-Feb-15 11:26N 49°10' W 123°53'0 0.0
2017-Feb-15 10:23N 49°10' W 123°53'0 0.0
2017-Feb-15 09:20N 49°10' W 123°53'2 2.5
2017-Feb-15 08:33N 49°12' W 123°53'1918.5
2017-Feb-15 07:33N 49°06' W 123°26'1313.3
2017-Feb-15 06:33N 49°00' W 123°08'1313.0
2017-Feb-15 05:33N 49°04' W 123°27'1918.7
2017-Feb-15 04:33N 49°12' W 123°53'0 0.2
2017-Feb-15 03:33N 49°12' W 123°52'1918.4
2017-Feb-15 02:32N 49°06' W 123°25'1312.9
2017-Feb-15 01:33N 49°00' W 123°08'1312.7
2017-Feb-15 00:33N 49°05' W 123°26'1818.4
2017-Feb-14 23:33N 49°13' W 123°51'1 1.0
2017-Feb-14 22:33N 49°12' W 123°53'1918.5
2017-Feb-14 21:33N 49°06' W 123°26'1313.2
2017-Feb-14 20:33N 49°00' W 123°08'1212.0
2017-Feb-14 19:33N 49°04' W 123°25'1918.5
2017-Feb-14 18:33N 49°13' W 123°50'1 1.0
2017-Feb-14 17:33N 49°13' W 123°52'1818.0
2017-Feb-14 16:33N 49°06' W 123°26'1313.2
2017-Feb-14 15:33N 49°00' W 123°08'1212.1
2017-Feb-14 14:33N 49°04' W 123°26'1818.4
2017-Feb-14 13:33N 49°13' W 123°50'4 3.6
2017-Feb-14 12:29N 49°10' W 123°53'0 0.0
2017-Feb-14 11:28N 49°10' W 123°53'0 0.0
2017-Feb-14 10:25N 49°10' W 123°53'0 0.2
2017-Feb-14 08:33N 49°10' W 123°53'1716.9
2017-Feb-14 07:33N 49°07' W 123°28'1514.7
2017-Feb-14 06:33N 49°00' W 123°08'1110.8
2017-Feb-14 05:33N 49°03' W 123°24'1919.3
2017-Feb-14 04:33N 49°13' W 123°49'4 3.5
2017-Feb-14 03:33N 49°11' W 123°53'1817.8
2017-Feb-14 02:33N 49°08' W 123°26'1414.4
2017-Feb-14 01:33N 49°00' W 123°08'1211.9
2017-Feb-14 00:33N 49°04' W 123°25'2019.6
2017-Feb-13 23:33N 49°12' W 123°52'0 0.5
2017-Feb-13 22:33N 49°12' W 123°53'1818.3
2017-Feb-13 21:33N 49°06' W 123°26'1312.9
2017-Feb-13 20:31N 49°00' W 123°08'1111.4
2017-Feb-13 19:33N 49°03' W 123°24'1918.8
2017-Feb-13 18:33N 49°13' W 123°49'3 3.3
2017-Feb-13 17:33N 49°12' W 123°53'1717.4
2017-Feb-13 16:33N 49°07' W 123°28'1414.4
2017-Feb-13 15:34N 49°00' W 123°08'1211.9
2017-Feb-13 14:34N 49°04' W 123°25'1818.0
2017-Feb-13 13:34N 49°13' W 123°49'4 4.4
2017-Feb-13 12:33N 49°10' W 123°53'0 0.0
2017-Feb-13 11:32N 49°10' W 123°53'0 0.0
2017-Feb-13 10:33N 49°10' W 123°53'0 0.0
2017-Feb-13 09:09N 49°10' W 123°53'1 0.9
2017-Feb-13 08:33N 49°10' W 123°53'1616.7
2017-Feb-13 07:34N 49°07' W 123°29'1515.2
2017-Feb-13 06:33N 49°00' W 123°08'1111.1
2017-Feb-13 05:33N 49°03' W 123°24'1918.9
2017-Feb-13 04:33N 49°13' W 123°49'3 2.8
2017-Feb-13 03:33N 49°12' W 123°53'1817.8
2017-Feb-13 02:33N 49°07' W 123°27'1414.0
2017-Feb-13 01:33N 49°00' W 123°08'1110.7
2017-Feb-13 00:33N 49°03' W 123°24'1919.3
2017-Feb-12 23:33N 49°13' W 123°49'3 2.9
2017-Feb-12 22:33N 49°11' W 123°53'1717.3
2017-Feb-12 21:33N 49°07' W 123°27'1414.2
2017-Feb-12 20:33N 49°00' W 123°08'1111.4
2017-Feb-12 19:33N 49°04' W 123°25'1919.0
2017-Feb-12 18:33N 49°13' W 123°49'4 4.0
2017-Feb-12 17:31N 49°10' W 123°53'0 0.1
2017-Feb-12 16:31N 49°10' W 123°53'0 0.0
2017-Feb-12 15:33N 49°10' W 123°53'0 0.0
2017-Feb-12 14:30N 49°10' W 123°53'0 0.0
2017-Feb-12 13:30N 49°10' W 123°53'0 0.0
2017-Feb-12 12:32N 49°10' W 123°53'0 0.0
2017-Feb-12 11:32N 49°10' W 123°53'0 0.0
2017-Feb-12 10:16N 49°10' W 123°53'0 0.0
2017-Feb-12 09:31N 49°10' W 123°53'0 0.0
2017-Feb-12 08:27N 49°10' W 123°53'0 0.0
2017-Feb-12 07:33N 49°10' W 123°53'0 0.0
2017-Feb-12 06:33N 49°10' W 123°53'0 0.0
2017-Feb-12 05:32N 49°10' W 123°53'0 0.0
2017-Feb-12 04:32N 49°10' W 123°53'4 4.5
2017-Feb-12 03:34N 49°13' W 123°49'2120.6
2017-Feb-12 02:33N 49°04' W 123°21'9 9.1
2017-Feb-12 01:33N 49°00' W 123°08'1111.1
2017-Feb-12 00:34N 49°03' W 123°24'1919.2
2017-Feb-11 23:33N 49°13' W 123°50'2 1.7
2017-Feb-11 22:33N 49°13' W 123°52'1918.7
2017-Feb-11 21:33N 49°07' W 123°25'1312.6
2017-Feb-11 20:33N 49°00' W 123°08'1111.5
2017-Feb-11 19:33N 49°03' W 123°25'1918.9
2017-Feb-11 18:33N 49°13' W 123°49'  
Track history (hours):
 
Tides and Currents Weather Stations Pressure Air Temp Water Temp Dewpoint Dewpoint Depression Visibility Wind Speed Wind Dir Waves Ship Positions

Coastal Inspiration

Last reported at 2017-Feb-21 18:32 UTC. Time now 2017-Feb-21 19:06 UTC.
Position N 49°13' W 123°50'.

Length 160 m; draft 6 m.

Type: Ship. MMSI: 316011408.

Date/timePositionNaut miles runAvg speedWind from/ knotsBaromVisibWave heightAir tempDewpointWater temp
2017-Feb-21 18:32N 49°13' W 123°50'3 2.9
2017-Feb-21 17:33N 49°11' W 123°53'1817.6
2017-Feb-21 16:33N 49°07' W 123°28'1414.3
2017-Feb-21 15:33N 49°00' W 123°08'1111.0
2017-Feb-21 14:33N 49°03' W 123°24'2118.4
2017-Feb-21 13:26N 49°12' W 123°52'3 3.2
2017-Feb-21 12:33N 49°10' W 123°53'0 0.0
2017-Feb-21 10:32N 49°10' W 123°53'0 0.1
2017-Feb-21 08:29N 49°10' W 123°53'1717.1
2017-Feb-21 07:30N 49°07' W 123°28'1515.9
2017-Feb-21 06:34N 49°00' W 123°08'1110.8
2017-Feb-21 05:33N 49°03' W 123°24'1918.9
2017-Feb-21 04:33N 49°13' W 123°49'3 3.3
2017-Feb-21 03:33N 49°12' W 123°53'1817.9
2017-Feb-21 02:33N 49°06' W 123°27'1413.7
2017-Feb-21 01:33N 49°00' W 123°08'1211.9
2017-Feb-21 00:33N 49°04' W 123°25'1818.1
2017-Feb-20 23:32N 49°13' W 123°50'3 2.7
2017-Feb-20 22:33N 49°11' W 123°53'1818.0
2017-Feb-20 21:33N 49°07' W 123°27'1414.0
2017-Feb-20 20:33N 49°00' W 123°08'1111.3
2017-Feb-20 19:33N 49°04' W 123°25'2010.2
2017-Feb-20 17:33N 49°12' W 123°53'1818.1
2017-Feb-20 16:33N 49°06' W 123°26'1413.7
2017-Feb-20 15:33N 49°00' W 123°08'1211.6
2017-Feb-20 14:33N 49°03' W 123°25'2018.1
2017-Feb-20 13:27N 49°12' W 123°53'3 0.8
2017-Feb-20 10:20N 49°10' W 123°53'2 1.1
2017-Feb-20 08:24N 49°12' W 123°53'1619.2
2017-Feb-20 07:33N 49°07' W 123°29'1615.6
2017-Feb-20 06:33N 49°00' W 123°08'1110.6
2017-Feb-20 05:33N 49°03' W 123°24'1919.3
2017-Feb-20 04:33N 49°13' W 123°49'3 2.5
2017-Feb-20 03:31N 49°12' W 123°53'1818.5
2017-Feb-20 02:34N 49°07' W 123°27'1414.0
2017-Feb-20 01:33N 49°00' W 123°08'1212.1
2017-Feb-20 00:33N 49°04' W 123°26'19 9.5
2017-Feb-19 22:30N 49°11' W 123°53'1718.0
2017-Feb-19 21:33N 49°07' W 123°28'1414.5
2017-Feb-19 20:33N 49°00' W 123°08'1211.9
2017-Feb-19 19:33N 49°04' W 123°25'1918.7
2017-Feb-19 18:31N 49°13' W 123°52'3 0.3
2017-Feb-19 09:06N 49°10' W 123°53'0 0.0
2017-Feb-19 05:24N 49°10' W 123°53'3 1.4
2017-Feb-19 03:31N 49°12' W 123°52'1818.5
2017-Feb-19 02:33N 49°06' W 123°27'1413.3
2017-Feb-19 01:32N 49°00' W 123°08'1212.7
2017-Feb-19 00:33N 49°04' W 123°26'1818.0
2017-Feb-18 23:33N 49°13' W 123°50'3 2.5
2017-Feb-18 22:32N 49°11' W 123°54'1818.1
2017-Feb-18 21:32N 49°06' W 123°27'1414.0
2017-Feb-18 20:33N 49°00' W 123°08'1110.8
2017-Feb-18 19:33N 49°03' W 123°24'1918.9
2017-Feb-18 18:34N 49°13' W 123°48'0 0.1
2017-Feb-18 17:24N 49°13' W 123°48'1518.4
2017-Feb-18 16:33N 49°06' W 123°27'1412.7
2017-Feb-18 15:28N 49°00' W 123°08'1212.8
2017-Feb-18 14:33N 49°04' W 123°25'1818.2
2017-Feb-18 13:33N 49°13' W 123°49'4 3.3
2017-Feb-18 12:17N 49°10' W 123°53'0 0.0
2017-Feb-18 10:19N 49°10' W 123°53'2 1.0
2017-Feb-18 08:29N 49°12' W 123°53'1718.0
2017-Feb-18 07:33N 49°07' W 123°28'1514.9
2017-Feb-18 06:33N 49°00' W 123°08'1211.9
2017-Feb-18 05:33N 49°04' W 123°25'1918.4
2017-Feb-18 04:31N 49°13' W 123°51'1 1.1
2017-Feb-18 03:33N 49°12' W 123°53'1918.7
2017-Feb-18 02:32N 49°06' W 123°25'1212.6
2017-Feb-18 01:33N 49°00' W 123°08'1111.0
2017-Feb-18 00:33N 49°03' W 123°24'1919.2
2017-Feb-17 23:32N 49°13' W 123°50'2 1.9
2017-Feb-17 22:33N 49°12' W 123°53'1817.9
2017-Feb-17 21:33N 49°06' W 123°27'1413.6
2017-Feb-17 20:33N 49°00' W 123°08'1111.3
2017-Feb-17 19:33N 49°03' W 123°24'1918.8
2017-Feb-17 18:33N 49°13' W 123°49'0 0.3
2017-Feb-17 17:26N 49°13' W 123°48'1618.1
2017-Feb-17 16:33N 49°06' W 123°26'1313.4
2017-Feb-17 15:33N 49°00' W 123°08'1211.9
2017-Feb-17 14:33N 49°04' W 123°26'1918.4
2017-Feb-17 13:31N 49°13' W 123°50'4 3.8
2017-Feb-17 12:27N 49°10' W 123°53'0 0.0
2017-Feb-17 10:12N 49°10' W 123°53'3 1.6
2017-Feb-17 08:33N 49°12' W 123°53'1919.2
2017-Feb-17 07:33N 49°06' W 123°25'1212.4
2017-Feb-17 06:33N 49°00' W 123°08'1313.2
2017-Feb-17 05:33N 49°05' W 123°27'1917.4
2017-Feb-17 04:29N 49°12' W 123°53'1 1.3
2017-Feb-17 03:33N 49°13' W 123°51'1919.1
2017-Feb-17 02:33N 49°06' W 123°24'1211.8
2017-Feb-17 01:33N 49°00' W 123°08'1313.0
2017-Feb-17 00:33N 49°05' W 123°27'1717.3
2017-Feb-16 23:33N 49°13' W 123°50'3 2.5
2017-Feb-16 22:31N 49°12' W 123°53'1718.0
2017-Feb-16 21:33N 49°07' W 123°28'1414.5
2017-Feb-16 20:34N 49°00' W 123°08'1111.4
2017-Feb-16 19:34N 49°04' W 123°25'2018.6
2017-Feb-16 18:28N 49°13' W 123°53'0 0.5
2017-Feb-16 17:31N 49°12' W 123°53'1819.3
2017-Feb-16 16:33N 49°06' W 123°26'1313.3
2017-Feb-16 15:33N 49°00' W 123°08'1211.8
2017-Feb-16 14:33N 49°04' W 123°25'1818.1
2017-Feb-16 13:33N 49°13' W 123°49'3 0.6
2017-Feb-16 08:28N 49°12' W 123°53'1718.5
2017-Feb-16 07:32N 49°08' W 123°28'1515.2
2017-Feb-16 06:34N 49°00' W 123°08'1010.1
2017-Feb-16 05:33N 49°03' W 123°23'2019.6
2017-Feb-16 04:33N 49°13' W 123°49'4 3.5
2017-Feb-16 03:33N 49°11' W 123°53'1919.3
2017-Feb-16 02:33N 49°06' W 123°25'1212.0
2017-Feb-16 01:32N 49°00' W 123°08'1414.5
2017-Feb-16 00:34N 49°05' W 123°28'1817.6
2017-Feb-15 23:33N 49°12' W 123°53'1 0.9
2017-Feb-15 22:33N 49°13' W 123°52'1818.0
2017-Feb-15 21:33N 49°06' W 123°26'1313.5
2017-Feb-15 20:33N 49°00' W 123°08'1211.9
2017-Feb-15 19:33N 49°04' W 123°25'1918.8
2017-Feb-15 18:33N 49°13' W 123°50'1 1.0
2017-Feb-15 17:33N 49°13' W 123°52'1817.9
2017-Feb-15 16:33N 49°06' W 123°26'1313.2
2017-Feb-15 15:33N 49°00' W 123°08'1111.4
2017-Feb-15 14:33N 49°04' W 123°25'1918.4
2017-Feb-15 13:33N 49°13' W 123°49'4 4.4
2017-Feb-15 12:33N 49°10' W 123°53'0 0.0
2017-Feb-15 11:26N 49°10' W 123°53'0 0.0
2017-Feb-15 10:23N 49°10' W 123°53'0 0.0
2017-Feb-15 09:20N 49°10' W 123°53'2 2.5
2017-Feb-15 08:33N 49°12' W 123°53'1918.5
2017-Feb-15 07:33N 49°06' W 123°26'1313.3
2017-Feb-15 06:33N 49°00' W 123°08'1313.0
2017-Feb-15 05:33N 49°04' W 123°27'1918.7
2017-Feb-15 04:33N 49°12' W 123°53'0 0.2
2017-Feb-15 03:33N 49°12' W 123°52'1918.4
2017-Feb-15 02:32N 49°06' W 123°25'1312.9
2017-Feb-15 01:33N 49°00' W 123°08'1312.7
2017-Feb-15 00:33N 49°05' W 123°26'1818.4
2017-Feb-14 23:33N 49°13' W 123°51'1 1.0
2017-Feb-14 22:33N 49°12' W 123°53'1918.5
2017-Feb-14 21:33N 49°06' W 123°26'1313.2
2017-Feb-14 20:33N 49°00' W 123°08'1212.0
2017-Feb-14 19:33N 49°04' W 123°25'1918.5
2017-Feb-14 18:33N 49°13' W 123°50'1 1.0
2017-Feb-14 17:33N 49°13' W 123°52'1818.0
2017-Feb-14 16:33N 49°06' W 123°26'1313.2
2017-Feb-14 15:33N 49°00' W 123°08'1212.1
2017-Feb-14 14:33N 49°04' W 123°26'1818.4
2017-Feb-14 13:33N 49°13' W 123°50'4 3.6
2017-Feb-14 12:29N 49°10' W 123°53'0 0.0
2017-Feb-14 11:28N 49°10' W 123°53'0 0.0
2017-Feb-14 10:25N 49°10' W 123°53'0 0.2
2017-Feb-14 08:33N 49°10' W 123°53'1716.9
2017-Feb-14 07:33N 49°07' W 123°28'1514.7
2017-Feb-14 06:33N 49°00' W 123°08'1110.8
2017-Feb-14 05:33N 49°03' W 123°24'1919.3
2017-Feb-14 04:33N 49°13' W 123°49'4 3.5
2017-Feb-14 03:33N 49°11' W 123°53'1817.8
2017-Feb-14 02:33N 49°08' W 123°26'1414.4
2017-Feb-14 01:33N 49°00' W 123°08'1211.9
2017-Feb-14 00:33N 49°04' W 123°25'2019.6
2017-Feb-13 23:33N 49°12' W 123°52'0 0.5
2017-Feb-13 22:33N 49°12' W 123°53'1818.3
2017-Feb-13 21:33N 49°06' W 123°26'1312.9
2017-Feb-13 20:31N 49°00' W 123°08'1111.4
2017-Feb-13 19:33N 49°03' W 123°24'1918.8
2017-Feb-13 18:33N 49°13' W 123°49'3 3.3
2017-Feb-13 17:33N 49°12' W 123°53'1717.4
2017-Feb-13 16:33N 49°07' W 123°28'1414.4
2017-Feb-13 15:34N 49°00' W 123°08'1211.9
2017-Feb-13 14:34N 49°04' W 123°25'1818.0
2017-Feb-13 13:34N 49°13' W 123°49'4 4.4
2017-Feb-13 12:33N 49°10' W 123°53'0 0.0
2017-Feb-13 11:32N 49°10' W 123°53'0 0.0
2017-Feb-13 10:33N 49°10' W 123°53'0 0.0
2017-Feb-13 09:09N 49°10' W 123°53'1 0.9
2017-Feb-13 08:33N 49°10' W 123°53'1616.7
2017-Feb-13 07:34N 49°07' W 123°29'1515.2
2017-Feb-13 06:33N 49°00' W 123°08'1111.1
2017-Feb-13 05:33N 49°03' W 123°24'1918.9
2017-Feb-13 04:33N 49°13' W 123°49'3 2.8
2017-Feb-13 03:33N 49°12' W 123°53'1817.8
2017-Feb-13 02:33N 49°07' W 123°27'1414.0
2017-Feb-13 01:33N 49°00' W 123°08'1110.7
2017-Feb-13 00:33N 49°03' W 123°24'1919.3
2017-Feb-12 23:33N 49°13' W 123°49'3 2.9
2017-Feb-12 22:33N 49°11' W 123°53'1717.3
2017-Feb-12 21:33N 49°07' W 123°27'1414.2
2017-Feb-12 20:33N 49°00' W 123°08'1111.4
2017-Feb-12 19:33N 49°04' W 123°25'1919.0
2017-Feb-12 18:33N 49°13' W 123°49'4 4.0
2017-Feb-12 17:31N 49°10' W 123°53'0 0.1
2017-Feb-12 16:31N 49°10' W 123°53'0 0.0
2017-Feb-12 15:33N 49°10' W 123°53'0 0.0
2017-Feb-12 14:30N 49°10' W 123°53'0 0.0
2017-Feb-12 13:30N 49°10' W 123°53'0 0.0
2017-Feb-12 12:32N 49°10' W 123°53'0 0.0
2017-Feb-12 11:32N 49°10' W 123°53'0 0.0
2017-Feb-12 10:16N 49°10' W 123°53'0 0.0
2017-Feb-12 09:31N 49°10' W 123°53'0 0.0
2017-Feb-12 08:27N 49°10' W 123°53'0 0.0
2017-Feb-12 07:33N 49°10' W 123°53'0 0.0
2017-Feb-12 06:33N 49°10' W 123°53'0 0.0
2017-Feb-12 05:32N 49°10' W 123°53'0 0.0
2017-Feb-12 04:32N 49°10' W 123°53'4 4.5
2017-Feb-12 03:34N 49°13' W 123°49'2120.6
2017-Feb-12 02:33N 49°04' W 123°21'9 9.1
2017-Feb-12 01:33N 49°00' W 123°08'1111.1
2017-Feb-12 00:34N 49°03' W 123°24'1919.2
2017-Feb-11 23:33N 49°13' W 123°50'2 1.7
2017-Feb-11 22:33N 49°13' W 123°52'1918.7
2017-Feb-11 21:33N 49°07' W 123°25'1312.6
2017-Feb-11 20:33N 49°00' W 123°08'1111.5
2017-Feb-11 19:33N 49°03' W 123°25'1918.9
2017-Feb-11 18:33N 49°13' W 123°49'  

Dump ship's entire track history